Rosaria Lauro — IXXO — position and weather

sailwx.info

Track history (hours):
 
Tides and Currents Weather Stations Pressure Air Temp Water Temp Dewpoint Dewpoint Depression Visibility Wind Speed Wind Dir Waves Ship Positions

Rosaria Lauro

Last reported at 2014-Jul-22 14:21 UTC. Time now 2014-Jul-22 21:33 UTC.
Position N 40°45' E 013°56'.

Length 40 m; draft 1.5 m.

Type: Passenger vessel. MMSI: 247055900.

Date/timePositionNaut miles runAvg speedWind from/ knotsBaromVisibWave heightAir tempDewpointWater temp
2014-Jul-22 14:21N 40°45' E 013°56'0 0.1
2014-Jul-22 13:34N 40°45' E 013°56'1611.2
2014-Jul-22 12:08N 40°50' E 014°16'1221.8
2014-Jul-22 11:34N 40°44' E 014°02'4 3.9
2014-Jul-22 10:33N 40°45' E 013°56'1515.1
2014-Jul-22 09:33N 40°49' E 014°16'7 6.9
2014-Jul-22 08:33N 40°46' E 014°07'1211.9
2014-Jul-22 07:32N 40°44' E 013°52'10 4.8
2014-Jul-22 05:34N 40°45' E 014°04'10 9.6
2014-Jul-22 04:33N 40°44' E 013°52'2 0.2
2014-Jul-21 16:34N 40°46' E 013°53'1815.3
2014-Jul-21 15:24N 40°50' E 014°16'1922.9
2014-Jul-21 14:33N 40°45' E 013°52'4 3.6
2014-Jul-21 13:33N 40°45' E 013°56'1611.6
2014-Jul-21 12:11N 40°50' E 014°16'1320.3
2014-Jul-21 11:34N 40°46' E 014°00'7 6.8
2014-Jul-21 10:34N 40°44' E 013°52'1414.1
2014-Jul-21 09:34N 40°47' E 014°10'5 4.7
2014-Jul-21 08:34N 40°48' E 014°16'1918.7
2014-Jul-21 07:34N 40°45' E 013°51'2019.6
2014-Jul-21 06:33N 40°49' E 014°17'1111.3
2014-Jul-21 05:34N 40°46' E 014°02'8 8.4
2014-Jul-21 04:33N 40°44' E 013°52'0 0.0
2014-Jul-20 19:33N 40°44' E 013°52'1818.5
2014-Jul-20 18:34N 40°48' E 014°15'1110.8
2014-Jul-20 17:34N 40°45' E 014°02'0 0.2
2014-Jul-20 16:33N 40°44' E 014°02'1212.4
2014-Jul-20 15:34N 40°50' E 014°16'2019.2
2014-Jul-20 14:32N 40°44' E 013°52'4 3.7
2014-Jul-20 13:33N 40°45' E 013°56'1515.4
2014-Jul-20 12:34N 40°50' E 014°15'1413.5
2014-Jul-20 11:33N 40°44' E 013°59'6 5.9
2014-Jul-20 10:33N 40°44' E 013°52'1010.3
2014-Jul-20 09:33N 40°45' E 014°05'10 8.6
2014-Jul-20 08:26N 40°50' E 014°16'1618.2
2014-Jul-20 07:34N 40°45' E 013°56'4 3.6
2014-Jul-20 06:33N 40°44' E 013°52'5 0.4
2014-Jul-19 18:34N 40°45' E 013°58'1413.6
2014-Jul-19 17:33N 40°48' E 014°15'1818.4
2014-Jul-19 16:33N 40°45' E 013°52'1916.7
2014-Jul-19 15:24N 40°50' E 014°16'2022.7
2014-Jul-19 14:32N 40°44' E 013°52'4 3.7
2014-Jul-19 13:33N 40°45' E 013°56'1512.9
2014-Jul-19 12:22N 40°50' E 014°15'1215.3
2014-Jul-19 11:34N 40°44' E 014°01'7 7.2
2014-Jul-19 10:34N 40°44' E 013°52'1615.7
2014-Jul-19 09:33N 40°47' E 014°12'4 4.1
2014-Jul-19 08:33N 40°49' E 014°17'1919.3
2014-Jul-19 07:33N 40°46' E 013°52'1616.0
2014-Jul-19 06:33N 40°48' E 014°13'6 6.5
2014-Jul-19 05:34N 40°45' E 014°05'1010.3
2014-Jul-19 04:33N 40°44' E 013°52'9 0.9
2014-Jul-18 18:34N 40°47' E 014°03'9 8.7
2014-Jul-18 17:33N 40°48' E 014°14'1616.4
2014-Jul-18 16:34N 40°46' E 013°53'1715.7
2014-Jul-18 15:27N 40°50' E 014°15'1921.2
2014-Jul-18 14:33N 40°45' E 013°52'4 3.6
2014-Jul-18 13:34N 40°45' E 013°56'1511.6
2014-Jul-18 12:14N 40°50' E 014°15'1116.6
2014-Jul-18 11:33N 40°46' E 014°02'8 7.8
2014-Jul-18 10:33N 40°44' E 013°52'1211.8
2014-Jul-18 09:34N 40°46' E 014°07'8 8.1
2014-Jul-18 08:33N 40°49' E 014°17'1918.7
2014-Jul-18 07:34N 40°46' E 013°53'1615.8
2014-Jul-18 06:33N 40°48' E 014°13'8 7.7
2014-Jul-18 05:34N 40°46' E 014°03'9 9.2
2014-Jul-18 04:33N 40°44' E 013°52'0 0.0
2014-Jul-17 16:34N 40°45' E 013°52'2016.1
2014-Jul-17 15:20N 40°50' E 014°17'2025.8
2014-Jul-17 14:33N 40°44' E 013°51'4 3.7
2014-Jul-17 13:33N 40°45' E 013°56'1511.4
2014-Jul-17 12:12N 40°50' E 014°15'1218.6
2014-Jul-17 11:34N 40°46' E 014°00'7 7.0
2014-Jul-17 10:33N 40°44' E 013°52'9 9.5
2014-Jul-17 09:34N 40°46' E 014°04'1010.1
2014-Jul-17 08:32N 40°50' E 014°17'1616.8
2014-Jul-17 07:33N 40°45' E 013°56'1313.1
2014-Jul-17 06:33N 40°47' E 014°13'6 6.2
2014-Jul-17 05:33N 40°46' E 014°05'1010.1
2014-Jul-17 04:33N 40°44' E 013°52'1 0.0
2014-Jul-16 16:34N 40°45' E 013°52'1916.2
2014-Jul-16 15:21N 40°50' E 014°16'2024.0
2014-Jul-16 14:32N 40°44' E 013°52'4 3.8
2014-Jul-16 13:33N 40°45' E 013°56'1611.4
2014-Jul-16 12:08N 40°50' E 014°17'1424.0
2014-Jul-16 11:34N 40°46' E 013°59'6 6.0
2014-Jul-16 10:33N 40°44' E 013°52'10 9.8
2014-Jul-16 09:34N 40°46' E 014°04'1010.1
2014-Jul-16 08:33N 40°50' E 014°17'2019.6
2014-Jul-16 07:33N 40°45' E 013°51'1918.5
2014-Jul-16 06:32N 40°49' E 014°16'10 9.9
2014-Jul-16 05:34N 40°46' E 014°04'9 9.3
2014-Jul-16 04:34N 40°44' E 013°52'1 0.1
2014-Jul-15 16:34N 40°46' E 013°52'1915.8
2014-Jul-15 15:21N 40°50' E 014°16'1924.6
2014-Jul-15 14:33N 40°45' E 013°51'4 3.8
2014-Jul-15 13:34N 40°45' E 013°56'1611.1
2014-Jul-15 12:07N 40°50' E 014°16'1220.7
2014-Jul-15 11:34N 40°46' E 014°02'8 7.9
2014-Jul-15 10:33N 40°44' E 013°52'1615.7
2014-Jul-15 09:33N 40°47' E 014°12'0 0.3
2014-Jul-15 08:34N 40°47' E 014°12'1616.0
2014-Jul-15 07:33N 40°44' E 013°52'1913.2
2014-Jul-15 06:05N 40°50' E 014°16'1120.5
2014-Jul-15 05:34N 40°46' E 014°03'9 8.6
2014-Jul-15 04:33N 40°44' E 013°52'2 0.2
2014-Jul-14 16:34N 40°46' E 013°54'1815.3
2014-Jul-14 15:24N 40°50' E 014°16'1922.9
2014-Jul-14 14:34N 40°45' E 013°52'4 3.7
2014-Jul-14 13:33N 40°45' E 013°56'1611.4
2014-Jul-14 12:09N 40°50' E 014°16'1220.4
2014-Jul-14 11:33N 40°46' E 014°01'7 7.3
2014-Jul-14 10:34N 40°44' E 013°52'1413.6
2014-Jul-14 09:33N 40°47' E 014°09'6 5.7
2014-Jul-14 08:33N 40°49' E 014°16'1919.2
2014-Jul-14 07:34N 40°46' E 013°52'1918.5
2014-Jul-14 06:31N 40°49' E 014°17'9 9.7
2014-Jul-14 05:33N 40°46' E 014°05'1010.3
2014-Jul-14 04:33N 40°44' E 013°52'0 0.0
2014-Jul-13 19:24N 40°44' E 013°52'1922.1
2014-Jul-13 18:33N 40°49' E 014°16'10 9.8
2014-Jul-13 17:34N 40°45' E 014°04'5 4.7
2014-Jul-13 16:34N 40°45' E 013°57'1514.6
2014-Jul-13 15:30N 40°50' E 014°17'2020.8
2014-Jul-13 14:34N 40°45' E 013°52'4 3.7
2014-Jul-13 13:34N 40°45' E 013°56'1611.8
2014-Jul-13 12:12N 40°50' E 014°16'1422.0
2014-Jul-13 11:34N 40°44' E 013°59'6 5.9
2014-Jul-13 10:34N 40°44' E 013°52'1010.5
2014-Jul-13 09:34N 40°45' E 014°05'10 8.1
2014-Jul-13 08:23N 40°50' E 014°16'1619.3
2014-Jul-13 07:34N 40°45' E 013°56'4 3.6
2014-Jul-13 06:33N 40°44' E 013°52'6 0.5
2014-Jul-12 18:34N 40°44' E 013°59'1212.1
2014-Jul-12 17:33N 40°48' E 014°14'1616.1
2014-Jul-12 16:34N 40°46' E 013°53'1815.2
2014-Jul-12 15:23N 40°50' E 014°16'1923.5
2014-Jul-12 14:34N 40°45' E 013°51'  
Track history (hours):
 
Tides and Currents Weather Stations Pressure Air Temp Water Temp Dewpoint Dewpoint Depression Visibility Wind Speed Wind Dir Waves Ship Positions

Rosaria Lauro

Last reported at 2014-Jul-22 14:21 UTC. Time now 2014-Jul-22 21:33 UTC.
Position N 40°45' E 013°56'.

Length 40 m; draft 1.5 m.

Type: Passenger vessel. MMSI: 247055900.

Date/timePositionNaut miles runAvg speedWind from/ knotsBaromVisibWave heightAir tempDewpointWater temp
2014-Jul-22 14:21N 40°45' E 013°56'0 0.1
2014-Jul-22 13:34N 40°45' E 013°56'1611.2
2014-Jul-22 12:08N 40°50' E 014°16'1221.8
2014-Jul-22 11:34N 40°44' E 014°02'4 3.9
2014-Jul-22 10:33N 40°45' E 013°56'1515.1
2014-Jul-22 09:33N 40°49' E 014°16'7 6.9
2014-Jul-22 08:33N 40°46' E 014°07'1211.9
2014-Jul-22 07:32N 40°44' E 013°52'10 4.8
2014-Jul-22 05:34N 40°45' E 014°04'10 9.6
2014-Jul-22 04:33N 40°44' E 013°52'2 0.2
2014-Jul-21 16:34N 40°46' E 013°53'1815.3
2014-Jul-21 15:24N 40°50' E 014°16'1922.9
2014-Jul-21 14:33N 40°45' E 013°52'4 3.6
2014-Jul-21 13:33N 40°45' E 013°56'1611.6
2014-Jul-21 12:11N 40°50' E 014°16'1320.3
2014-Jul-21 11:34N 40°46' E 014°00'7 6.8
2014-Jul-21 10:34N 40°44' E 013°52'1414.1
2014-Jul-21 09:34N 40°47' E 014°10'5 4.7
2014-Jul-21 08:34N 40°48' E 014°16'1918.7
2014-Jul-21 07:34N 40°45' E 013°51'2019.6
2014-Jul-21 06:33N 40°49' E 014°17'1111.3
2014-Jul-21 05:34N 40°46' E 014°02'8 8.4
2014-Jul-21 04:33N 40°44' E 013°52'0 0.0
2014-Jul-20 19:33N 40°44' E 013°52'1818.5
2014-Jul-20 18:34N 40°48' E 014°15'1110.8
2014-Jul-20 17:34N 40°45' E 014°02'0 0.2
2014-Jul-20 16:33N 40°44' E 014°02'1212.4
2014-Jul-20 15:34N 40°50' E 014°16'2019.2
2014-Jul-20 14:32N 40°44' E 013°52'4 3.7
2014-Jul-20 13:33N 40°45' E 013°56'1515.4
2014-Jul-20 12:34N 40°50' E 014°15'1413.5
2014-Jul-20 11:33N 40°44' E 013°59'6 5.9
2014-Jul-20 10:33N 40°44' E 013°52'1010.3
2014-Jul-20 09:33N 40°45' E 014°05'10 8.6
2014-Jul-20 08:26N 40°50' E 014°16'1618.2
2014-Jul-20 07:34N 40°45' E 013°56'4 3.6
2014-Jul-20 06:33N 40°44' E 013°52'5 0.4
2014-Jul-19 18:34N 40°45' E 013°58'1413.6
2014-Jul-19 17:33N 40°48' E 014°15'1818.4
2014-Jul-19 16:33N 40°45' E 013°52'1916.7
2014-Jul-19 15:24N 40°50' E 014°16'2022.7
2014-Jul-19 14:32N 40°44' E 013°52'4 3.7
2014-Jul-19 13:33N 40°45' E 013°56'1512.9
2014-Jul-19 12:22N 40°50' E 014°15'1215.3
2014-Jul-19 11:34N 40°44' E 014°01'7 7.2
2014-Jul-19 10:34N 40°44' E 013°52'1615.7
2014-Jul-19 09:33N 40°47' E 014°12'4 4.1
2014-Jul-19 08:33N 40°49' E 014°17'1919.3
2014-Jul-19 07:33N 40°46' E 013°52'1616.0
2014-Jul-19 06:33N 40°48' E 014°13'6 6.5
2014-Jul-19 05:34N 40°45' E 014°05'1010.3
2014-Jul-19 04:33N 40°44' E 013°52'9 0.9
2014-Jul-18 18:34N 40°47' E 014°03'9 8.7
2014-Jul-18 17:33N 40°48' E 014°14'1616.4
2014-Jul-18 16:34N 40°46' E 013°53'1715.7
2014-Jul-18 15:27N 40°50' E 014°15'1921.2
2014-Jul-18 14:33N 40°45' E 013°52'4 3.6
2014-Jul-18 13:34N 40°45' E 013°56'1511.6
2014-Jul-18 12:14N 40°50' E 014°15'1116.6
2014-Jul-18 11:33N 40°46' E 014°02'8 7.8
2014-Jul-18 10:33N 40°44' E 013°52'1211.8
2014-Jul-18 09:34N 40°46' E 014°07'8 8.1
2014-Jul-18 08:33N 40°49' E 014°17'1918.7
2014-Jul-18 07:34N 40°46' E 013°53'1615.8
2014-Jul-18 06:33N 40°48' E 014°13'8 7.7
2014-Jul-18 05:34N 40°46' E 014°03'9 9.2
2014-Jul-18 04:33N 40°44' E 013°52'0 0.0
2014-Jul-17 16:34N 40°45' E 013°52'2016.1
2014-Jul-17 15:20N 40°50' E 014°17'2025.8
2014-Jul-17 14:33N 40°44' E 013°51'4 3.7
2014-Jul-17 13:33N 40°45' E 013°56'1511.4
2014-Jul-17 12:12N 40°50' E 014°15'1218.6
2014-Jul-17 11:34N 40°46' E 014°00'7 7.0
2014-Jul-17 10:33N 40°44' E 013°52'9 9.5
2014-Jul-17 09:34N 40°46' E 014°04'1010.1
2014-Jul-17 08:32N 40°50' E 014°17'1616.8
2014-Jul-17 07:33N 40°45' E 013°56'1313.1
2014-Jul-17 06:33N 40°47' E 014°13'6 6.2
2014-Jul-17 05:33N 40°46' E 014°05'1010.1
2014-Jul-17 04:33N 40°44' E 013°52'1 0.0
2014-Jul-16 16:34N 40°45' E 013°52'1916.2
2014-Jul-16 15:21N 40°50' E 014°16'2024.0
2014-Jul-16 14:32N 40°44' E 013°52'4 3.8
2014-Jul-16 13:33N 40°45' E 013°56'1611.4
2014-Jul-16 12:08N 40°50' E 014°17'1424.0
2014-Jul-16 11:34N 40°46' E 013°59'6 6.0
2014-Jul-16 10:33N 40°44' E 013°52'10 9.8
2014-Jul-16 09:34N 40°46' E 014°04'1010.1
2014-Jul-16 08:33N 40°50' E 014°17'2019.6
2014-Jul-16 07:33N 40°45' E 013°51'1918.5
2014-Jul-16 06:32N 40°49' E 014°16'10 9.9
2014-Jul-16 05:34N 40°46' E 014°04'9 9.3
2014-Jul-16 04:34N 40°44' E 013°52'1 0.1
2014-Jul-15 16:34N 40°46' E 013°52'1915.8
2014-Jul-15 15:21N 40°50' E 014°16'1924.6
2014-Jul-15 14:33N 40°45' E 013°51'4 3.8
2014-Jul-15 13:34N 40°45' E 013°56'1611.1
2014-Jul-15 12:07N 40°50' E 014°16'1220.7
2014-Jul-15 11:34N 40°46' E 014°02'8 7.9
2014-Jul-15 10:33N 40°44' E 013°52'1615.7
2014-Jul-15 09:33N 40°47' E 014°12'0 0.3
2014-Jul-15 08:34N 40°47' E 014°12'1616.0
2014-Jul-15 07:33N 40°44' E 013°52'1913.2
2014-Jul-15 06:05N 40°50' E 014°16'1120.5
2014-Jul-15 05:34N 40°46' E 014°03'9 8.6
2014-Jul-15 04:33N 40°44' E 013°52'2 0.2
2014-Jul-14 16:34N 40°46' E 013°54'1815.3
2014-Jul-14 15:24N 40°50' E 014°16'1922.9
2014-Jul-14 14:34N 40°45' E 013°52'4 3.7
2014-Jul-14 13:33N 40°45' E 013°56'1611.4
2014-Jul-14 12:09N 40°50' E 014°16'1220.4
2014-Jul-14 11:33N 40°46' E 014°01'7 7.3
2014-Jul-14 10:34N 40°44' E 013°52'1413.6
2014-Jul-14 09:33N 40°47' E 014°09'6 5.7
2014-Jul-14 08:33N 40°49' E 014°16'1919.2
2014-Jul-14 07:34N 40°46' E 013°52'1918.5
2014-Jul-14 06:31N 40°49' E 014°17'9 9.7
2014-Jul-14 05:33N 40°46' E 014°05'1010.3
2014-Jul-14 04:33N 40°44' E 013°52'0 0.0
2014-Jul-13 19:24N 40°44' E 013°52'1922.1
2014-Jul-13 18:33N 40°49' E 014°16'10 9.8
2014-Jul-13 17:34N 40°45' E 014°04'5 4.7
2014-Jul-13 16:34N 40°45' E 013°57'1514.6
2014-Jul-13 15:30N 40°50' E 014°17'2020.8
2014-Jul-13 14:34N 40°45' E 013°52'4 3.7
2014-Jul-13 13:34N 40°45' E 013°56'1611.8
2014-Jul-13 12:12N 40°50' E 014°16'1422.0
2014-Jul-13 11:34N 40°44' E 013°59'6 5.9
2014-Jul-13 10:34N 40°44' E 013°52'1010.5
2014-Jul-13 09:34N 40°45' E 014°05'10 8.1
2014-Jul-13 08:23N 40°50' E 014°16'1619.3
2014-Jul-13 07:34N 40°45' E 013°56'4 3.6
2014-Jul-13 06:33N 40°44' E 013°52'6 0.5
2014-Jul-12 18:34N 40°44' E 013°59'1212.1
2014-Jul-12 17:33N 40°48' E 014°14'1616.1
2014-Jul-12 16:34N 40°46' E 013°53'1815.2
2014-Jul-12 15:23N 40°50' E 014°16'1923.5
2014-Jul-12 14:34N 40°45' E 013°51'  

Dump ship's entire track history